createdAt,value
2023-02-21T00:00:06.744Z,4.20
2023-02-21T00:03:18.490Z,2.70
2023-02-21T00:06:05.126Z,4.00
2023-02-21T00:08:51.763Z,2.70
2023-02-21T00:11:38.141Z,4.30
2023-02-21T00:14:24.875Z,2.30
2023-02-21T00:17:11.553Z,2.70
2023-02-21T00:19:58.057Z,3.30
2023-02-21T00:22:44.348Z,3.10
2023-02-21T00:25:30.949Z,3.10
2023-02-21T00:28:20.278Z,4.70
2023-02-21T00:31:07.089Z,3.40
2023-02-21T00:33:56.928Z,3.00
2023-02-21T00:36:43.360Z,4.30
2023-02-21T00:39:30.189Z,5.00
2023-02-21T00:42:16.652Z,4.60
2023-02-21T00:45:03.238Z,5.60
2023-02-21T00:47:49.870Z,11.60
2023-02-21T00:50:36.829Z,6.10
2023-02-21T00:53:24.000Z,4.60
2023-02-21T00:56:10.645Z,7.70
2023-02-21T00:58:57.291Z,5.40
2023-02-21T01:01:43.848Z,4.00
2023-02-21T01:04:31.065Z,3.30
2023-02-21T01:07:17.631Z,3.30
2023-02-21T01:10:04.213Z,2.70
2023-02-21T01:12:50.960Z,4.20
2023-02-21T01:15:37.645Z,3.50
2023-02-21T01:18:24.270Z,3.70
2023-02-21T01:21:11.114Z,3.90
2023-02-21T01:23:58.198Z,3.60
2023-02-21T01:26:44.990Z,3.10
2023-02-21T01:29:31.314Z,3.20
2023-02-21T01:32:19.876Z,5.30
2023-02-21T01:35:06.435Z,3.80
2023-02-21T01:37:52.940Z,2.20
2023-02-21T01:40:40.095Z,2.80
2023-02-21T01:43:36.338Z,2.70
2023-02-21T01:46:23.586Z,5.10
2023-02-21T01:49:13.325Z,0.90
2023-02-21T01:52:01.622Z,1.00
2023-02-21T01:54:56.870Z,2.10
2023-02-21T01:57:44.631Z,1.70
2023-02-21T02:00:33.181Z,0.60
2023-02-21T02:03:24.286Z,1.30
2023-02-21T02:06:28.816Z,3.10
2023-02-21T02:09:15.688Z,3.00
2023-02-21T02:12:24.631Z,2.90
2023-02-21T02:15:20.640Z,2.50
2023-02-21T02:18:14.417Z,2.10
2023-02-21T02:20:54.278Z,2.60
2023-02-21T02:23:59.973Z,1.80
2023-02-21T02:27:03.919Z,2.40
2023-02-21T02:30:17.007Z,2.30
2023-02-21T02:33:33.470Z,2.10
2023-02-21T02:36:17.931Z,1.90
2023-02-21T02:38:57.973Z,1.60
2023-02-21T02:41:49.738Z,1.70
2023-02-21T02:44:39.902Z,2.20
2023-02-21T02:47:15.826Z,1.50
2023-02-21T02:49:45.391Z,1.60
2023-02-21T02:52:13.300Z,1.10
2023-02-21T02:54:41.226Z,1.20
2023-02-21T02:57:13.166Z,1.30
2023-02-21T02:59:46.565Z,0.70
2023-02-21T03:02:41.807Z,1.60
2023-02-21T03:05:37.842Z,1.60
2023-02-21T03:08:20.048Z,0.70
2023-02-21T03:10:51.308Z,0.70
2023-02-21T03:13:40.317Z,0.60
2023-02-21T03:16:27.073Z,0.40
2023-02-21T03:19:04.750Z,1.30
2023-02-21T03:21:43.574Z,0.90
2023-02-21T03:24:14.625Z,1.00
2023-02-21T03:26:47.437Z,6.70
2023-02-21T03:29:28.615Z,5.60
2023-02-21T03:32:47.491Z,0.80
2023-02-21T03:35:16.187Z,1.30
2023-02-21T03:37:48.338Z,0.70
2023-02-21T03:40:32.844Z,0.90
2023-02-21T03:43:07.952Z,1.70
2023-02-21T03:46:02.092Z,0.70
2023-02-21T03:48:32.701Z,1.00
2023-02-21T03:51:16.479Z,0.60
2023-02-21T03:53:44.997Z,0.70
2023-02-21T03:56:13.190Z,0.70
2023-02-21T03:58:59.839Z,0.50
2023-02-21T04:01:28.052Z,1.60
2023-02-21T04:03:57.756Z,2.90
2023-02-21T04:06:25.662Z,1.60
2023-02-21T04:08:53.823Z,1.50
2023-02-21T04:11:23.543Z,0.40
2023-02-21T04:13:53.567Z,1.50
2023-02-21T04:16:21.614Z,0.70
2023-02-21T04:18:51.655Z,1.20
2023-02-21T04:21:20.849Z,0.90
2023-02-21T04:23:51.071Z,1.30
2023-02-21T04:26:19.270Z,1.50
2023-02-21T04:28:52.196Z,1.60
2023-02-21T04:31:20.700Z,1.20
2023-02-21T04:33:53.004Z,1.50
2023-02-21T04:36:28.174Z,1.30
2023-02-21T04:38:56.512Z,3.60
2023-02-21T04:41:24.598Z,2.60
2023-02-21T04:43:53.900Z,1.70
2023-02-21T04:46:22.326Z,0.40
2023-02-21T04:48:52.663Z,0.30
2023-02-21T04:51:24.039Z,0.60
2023-02-21T04:53:54.276Z,3.30
2023-02-21T04:56:25.975Z,1.60
2023-02-21T04:58:53.963Z,1.80
2023-02-21T05:01:23.247Z,2.70
2023-02-21T05:03:51.365Z,2.80
2023-02-21T05:06:22.233Z,3.60
2023-02-21T05:08:50.529Z,2.10
2023-02-21T05:11:20.672Z,3.10
2023-02-21T05:13:49.466Z,4.50
2023-02-21T05:16:19.161Z,6.70
2023-02-21T05:18:49.164Z,0.80
2023-02-21T05:21:19.916Z,3.50
2023-02-21T05:23:55.635Z,3.60
2023-02-21T05:26:29.871Z,0.90
2023-02-21T05:28:57.852Z,1.70
2023-02-21T05:31:25.957Z,1.50
2023-02-21T05:33:54.265Z,3.30
2023-02-21T05:36:25.306Z,3.00
2023-02-21T05:38:56.159Z,2.60
2023-02-21T05:41:24.375Z,1.00
2023-02-21T05:43:53.289Z,3.90
2023-02-21T05:46:27.535Z,2.30
2023-02-21T05:48:57.776Z,2.70
2023-02-21T05:51:25.820Z,3.10
2023-02-21T05:53:56.358Z,7.50
2023-02-21T05:56:24.307Z,6.50
2023-02-21T05:58:52.225Z,2.10
2023-02-21T06:01:20.175Z,1.30
2023-02-21T06:03:48.120Z,3.20
2023-02-21T06:06:16.854Z,3.60
2023-02-21T06:08:48.169Z,1.70
2023-02-21T06:11:24.953Z,1.20
2023-02-21T06:13:54.954Z,1.50
2023-02-21T06:16:24.285Z,5.10
2023-02-21T06:18:57.250Z,3.80
2023-02-21T06:23:53.485Z,4.90
2023-02-21T06:26:22.894Z,5.70
2023-02-21T06:28:51.333Z,2.70
2023-02-21T06:31:22.980Z,4.70
2023-02-21T06:33:51.435Z,5.80
2023-02-21T06:36:23.533Z,2.70
2023-02-21T06:38:55.856Z,3.90
2023-02-21T06:41:28.456Z,6.20
2023-02-21T06:43:58.245Z,9.20
2023-02-21T06:46:29.907Z,3.70
2023-02-21T06:48:58.673Z,3.30
2023-02-21T06:51:29.940Z,6.60
2023-02-21T06:53:58.654Z,4.60
2023-02-21T06:56:27.164Z,4.10
2023-02-21T06:58:55.250Z,5.60
2023-02-21T07:01:25.088Z,2.40
2023-02-21T07:03:53.148Z,6.30
2023-02-21T07:06:22.705Z,6.40
2023-02-21T07:08:50.888Z,5.80
2023-02-21T07:11:19.596Z,11.60
2023-02-21T07:13:56.741Z,6.50
2023-02-21T07:16:26.047Z,3.10
2023-02-21T07:18:54.285Z,9.20
2023-02-21T07:21:22.821Z,4.60
2023-02-21T07:23:50.709Z,15.70
2023-02-21T07:26:18.883Z,10.30
2023-02-21T07:28:50.702Z,5.30
2023-02-21T07:31:20.769Z,5.80
2023-02-21T07:33:51.213Z,4.40
2023-02-21T07:36:19.112Z,12.40
2023-02-21T07:38:48.269Z,7.30
2023-02-21T07:41:18.045Z,5.20
2023-02-21T07:43:45.888Z,8.50
2023-02-21T07:46:17.091Z,3.90
2023-02-21T07:48:45.616Z,6.40
2023-02-21T07:51:13.961Z,5.10
2023-02-21T07:53:42.402Z,5.10
2023-02-21T07:56:10.433Z,4.80
2023-02-21T07:58:41.356Z,6.10
2023-02-21T08:01:09.752Z,7.50
2023-02-21T08:03:38.008Z,3.50
2023-02-21T08:06:06.459Z,4.70
2023-02-21T08:08:34.835Z,7.90
2023-02-21T08:11:08.244Z,22.10
2023-02-21T08:13:40.709Z,7.90
2023-02-21T08:16:15.454Z,5.90
2023-02-21T08:18:43.471Z,7.20
2023-02-21T08:21:11.908Z,6.10
2023-02-21T08:23:39.953Z,7.90
2023-02-21T08:26:08.061Z,10.20
2023-02-21T08:28:37.320Z,6.10
2023-02-21T08:31:06.620Z,12.00
2023-02-21T08:33:34.526Z,9.80
2023-02-21T08:36:02.454Z,20.40
2023-02-21T08:38:30.478Z,7.90
2023-02-21T08:40:58.763Z,16.30
2023-02-21T08:43:27.832Z,8.50
2023-02-21T08:45:55.757Z,9.80
2023-02-21T08:48:24.016Z,10.00
2023-02-21T08:50:53.664Z,10.30
2023-02-21T08:53:22.884Z,12.10
2023-02-21T08:55:50.905Z,7.00
2023-02-21T08:58:18.819Z,13.30
2023-02-21T09:00:46.722Z,4.50
2023-02-21T09:03:17.080Z,7.10
2023-02-21T09:05:45.122Z,11.00
2023-02-21T09:08:13.396Z,9.30
2023-02-21T09:10:47.709Z,8.00
2023-02-21T09:13:17.971Z,10.20
2023-02-21T09:15:45.885Z,9.30
2023-02-21T09:18:13.868Z,9.60
2023-02-21T09:20:42.348Z,12.90
2023-02-21T09:23:10.447Z,8.80
2023-02-21T09:25:38.455Z,7.90
2023-02-21T09:28:08.161Z,16.90
2023-02-21T09:30:36.085Z,12.20
2023-02-21T09:33:04.193Z,9.50
2023-02-21T09:35:32.113Z,8.80
2023-02-21T09:38:01.408Z,21.90
2023-02-21T09:40:55.425Z,11.30
2023-02-21T09:43:45.886Z,13.00
2023-02-21T09:46:32.762Z,12.60
2023-02-21T09:49:03.847Z,10.20
2023-02-21T09:51:34.358Z,13.90
2023-02-21T09:54:03.550Z,5.40
2023-02-21T09:56:39.312Z,12.30
2023-02-21T09:59:12.289Z,11.60
2023-02-21T10:02:16.208Z,8.40
2023-02-21T10:05:18.128Z,11.20
2023-02-21T10:08:13.763Z,10.20
2023-02-21T10:11:06.535Z,14.10
2023-02-21T10:13:43.184Z,5.80
2023-02-21T10:16:33.980Z,8.60
2023-02-21T10:19:18.579Z,14.80
2023-02-21T10:21:49.353Z,14.40
2023-02-21T10:24:25.782Z,10.10
2023-02-21T10:27:12.980Z,14.40
2023-02-21T10:30:15.301Z,8.80
2023-02-21T10:32:43.364Z,11.30
2023-02-21T10:35:11.549Z,14.00
2023-02-21T10:37:54.158Z,15.40
2023-02-21T10:40:45.871Z,13.50
2023-02-21T10:43:30.363Z,9.00
2023-02-21T10:46:31.246Z,13.30
2023-02-21T10:49:33.000Z,21.60
2023-02-21T10:52:12.099Z,11.50
2023-02-21T10:54:40.538Z,12.50
2023-02-21T10:57:13.177Z,9.20
2023-02-21T10:59:43.257Z,11.00
2023-02-21T11:02:40.053Z,10.10
2023-02-21T11:05:19.185Z,23.10
2023-02-21T11:08:03.089Z,15.00
2023-02-21T11:10:34.639Z,11.00
2023-02-21T11:13:05.888Z,17.30
2023-02-21T11:15:34.243Z,5.40
2023-02-21T11:18:24.903Z,8.30
2023-02-21T11:20:53.972Z,8.10
2023-02-21T11:23:30.249Z,11.40
2023-02-21T11:26:11.772Z,12.40
2023-02-21T11:28:43.838Z,11.00
2023-02-21T11:31:39.800Z,14.00
2023-02-21T11:34:14.057Z,12.20
2023-02-21T11:36:45.922Z,7.00
2023-02-21T11:39:14.699Z,11.20
2023-02-21T11:41:48.964Z,11.30
2023-02-21T11:44:43.230Z,16.70
2023-02-21T11:47:34.523Z,21.90
2023-02-21T11:50:24.289Z,11.70
2023-02-21T11:53:22.535Z,15.20
2023-02-21T11:56:03.051Z,13.50
2023-02-21T11:58:56.827Z,11.30
2023-02-21T12:01:38.654Z,10.60
2023-02-21T12:04:42.192Z,13.10
2023-02-21T12:10:48.642Z,10.70
2023-02-21T12:13:53.304Z,21.50
2023-02-21T12:16:57.382Z,10.10
2023-02-21T12:19:35.859Z,7.20
2023-02-21T12:22:19.182Z,12.10
2023-02-21T12:25:10.151Z,13.70
2023-02-21T12:28:04.459Z,13.80
2023-02-21T12:30:50.990Z,11.60
2023-02-21T12:33:57.188Z,13.40
2023-02-21T12:36:54.734Z,10.60
2023-02-21T12:40:08.967Z,10.10
2023-02-21T12:43:22.313Z,6.60
2023-02-21T12:46:31.286Z,7.50
2023-02-21T12:49:20.886Z,5.90
2023-02-21T12:51:59.722Z,9.30
2023-02-21T12:55:00.114Z,17.00
2023-02-21T12:57:42.487Z,13.00
2023-02-21T13:00:40.356Z,12.00
2023-02-21T13:03:42.570Z,12.70
2023-02-21T13:06:39.104Z,8.50
2023-02-21T13:09:17.622Z,6.30
2023-02-21T13:12:18.630Z,13.30
2023-02-21T13:14:59.106Z,14.10
2023-02-21T13:17:29.890Z,12.00
2023-02-21T13:20:10.424Z,10.50
2023-02-21T13:23:54.546Z,17.60
2023-02-21T13:27:01.925Z,13.20
2023-02-21T13:29:39.279Z,13.40
2023-02-21T13:32:16.982Z,8.20
2023-02-21T13:35:00.648Z,9.80
2023-02-21T13:37:35.660Z,9.10
2023-02-21T13:40:25.761Z,10.50
2023-02-21T13:43:22.001Z,11.60
2023-02-21T13:45:52.711Z,14.50
2023-02-21T13:48:30.469Z,9.40
2023-02-21T13:51:00.723Z,7.30
2023-02-21T13:53:55.931Z,9.20
2023-02-21T13:56:42.895Z,13.60
2023-02-21T13:59:22.984Z,13.90
2023-02-21T14:01:51.002Z,10.40
2023-02-21T14:04:53.358Z,13.80
2023-02-21T14:07:43.745Z,45.10
2023-02-21T14:10:25.595Z,16.30
2023-02-21T14:13:02.017Z,11.40
2023-02-21T14:15:46.148Z,10.20
2023-02-21T14:18:27.789Z,15.00
2023-02-21T14:20:57.932Z,12.80
2023-02-21T14:23:40.860Z,12.60
2023-02-21T14:26:43.208Z,9.90
2023-02-21T14:29:33.836Z,6.30
2023-02-21T14:32:04.467Z,13.40
2023-02-21T14:34:42.579Z,10.60
2023-02-21T14:37:27.139Z,16.30
2023-02-21T14:40:11.293Z,8.70
2023-02-21T14:43:15.934Z,8.80
2023-02-21T14:46:40.861Z,9.60
2023-02-21T14:49:18.010Z,17.30
2023-02-21T14:52:30.505Z,13.20
2023-02-21T14:55:55.840Z,8.00
2023-02-21T14:59:16.309Z,15.20
2023-02-21T15:02:18.684Z,10.10
2023-02-21T15:04:59.811Z,5.70
2023-02-21T15:07:37.234Z,8.40
2023-02-21T15:10:16.303Z,8.80
2023-02-21T15:13:03.173Z,6.90
2023-02-21T15:15:40.342Z,10.90
2023-02-21T15:18:26.533Z,16.40
2023-02-21T15:21:21.067Z,13.40
2023-02-21T15:24:13.473Z,8.70
2023-02-21T15:26:42.235Z,11.00
2023-02-21T15:29:17.876Z,14.00
2023-02-21T15:31:53.613Z,9.20
2023-02-21T15:34:33.186Z,12.80
2023-02-21T15:37:19.092Z,34.70
2023-02-21T15:39:56.413Z,8.20
2023-02-21T15:42:27.324Z,6.10
2023-02-21T15:45:03.324Z,11.60
2023-02-21T15:47:34.062Z,14.60
2023-02-21T15:50:18.099Z,9.30
2023-02-21T15:52:51.395Z,16.30
2023-02-21T15:55:19.821Z,12.10
2023-02-21T15:58:03.002Z,12.90
2023-02-21T16:00:47.040Z,12.70
2023-02-21T16:04:14.913Z,6.20
2023-02-21T16:06:55.914Z,14.60
2023-02-21T16:09:31.317Z,14.80
2023-02-21T16:12:11.709Z,10.20
2023-02-21T16:14:47.520Z,14.10
2023-02-21T16:17:28.952Z,17.00
2023-02-21T16:20:09.586Z,17.00
2023-02-21T16:22:59.665Z,11.70
2023-02-21T16:25:28.210Z,12.80
2023-02-21T16:28:00.134Z,10.80
2023-02-21T16:30:31.693Z,9.90
2023-02-21T16:33:05.859Z,11.70
2023-02-21T16:35:34.409Z,15.60
2023-02-21T16:38:02.497Z,10.70
2023-02-21T16:40:35.314Z,13.70
2023-02-21T16:45:33.511Z,21.80
2023-02-21T16:48:06.489Z,13.60
2023-02-21T16:53:12.664Z,15.40
2023-02-21T16:58:36.721Z,16.10
2023-02-21T17:01:16.353Z,10.00
2023-02-21T17:03:44.483Z,16.10
2023-02-21T17:06:23.466Z,17.60
2023-02-21T17:08:51.924Z,16.20
2023-02-21T17:11:20.047Z,17.50
2023-02-21T17:13:48.468Z,15.60
2023-02-21T17:16:16.715Z,16.80
2023-02-21T17:18:45.528Z,14.30
2023-02-21T17:21:13.702Z,18.20
2023-02-21T17:23:41.934Z,19.50
2023-02-21T17:26:12.175Z,19.90
2023-02-21T17:28:40.277Z,12.50
2023-02-21T17:31:08.418Z,35.40
2023-02-21T17:33:38.130Z,14.10
2023-02-21T17:36:06.661Z,19.20
2023-02-21T17:38:34.659Z,14.90
2023-02-21T17:41:04.115Z,12.40
2023-02-21T17:43:32.080Z,16.80
2023-02-21T17:46:00.457Z,10.60
2023-02-21T17:48:28.530Z,17.90
2023-02-21T17:50:58.402Z,12.90
2023-02-21T17:53:28.193Z,15.10
2023-02-21T17:55:56.980Z,16.40
2023-02-21T17:58:25.928Z,19.60
2023-02-21T18:00:55.358Z,16.30
2023-02-21T18:03:24.074Z,20.30
2023-02-21T18:05:52.245Z,19.00
2023-02-21T18:08:20.239Z,12.40
2023-02-21T18:10:48.190Z,12.90
2023-02-21T18:13:23.578Z,15.80
2023-02-21T18:15:51.612Z,14.20
2023-02-21T18:18:19.824Z,15.30
2023-02-21T18:20:47.758Z,23.60
2023-02-21T18:23:15.710Z,12.40
2023-02-21T18:25:44.540Z,14.00
2023-02-21T18:28:12.591Z,24.70
2023-02-21T18:30:41.806Z,17.80
2023-02-21T18:33:11.334Z,19.30
2023-02-21T18:35:41.546Z,18.50
2023-02-21T18:38:09.614Z,14.40
2023-02-21T18:40:44.508Z,11.50
2023-02-21T18:43:21.856Z,9.90
2023-02-21T18:45:56.518Z,17.00
2023-02-21T18:48:26.692Z,23.60
2023-02-21T18:50:54.993Z,23.60
2023-02-21T18:53:23.165Z,24.80
2023-02-21T18:55:51.387Z,14.90
2023-02-21T18:58:19.685Z,23.10
2023-02-21T19:00:49.803Z,19.20
2023-02-21T19:03:17.946Z,13.00
2023-02-21T19:05:48.161Z,12.90
2023-02-21T19:08:17.681Z,12.10
2023-02-21T19:10:52.572Z,19.50
2023-02-21T19:13:20.571Z,22.00
2023-02-21T19:15:48.674Z,16.80
2023-02-21T19:18:17.176Z,19.90
2023-02-21T19:20:45.342Z,11.50
2023-02-21T19:23:15.808Z,17.80
2023-02-21T19:25:44.114Z,16.90
2023-02-21T19:28:12.362Z,18.10
2023-02-21T19:30:41.221Z,17.00
2023-02-21T19:33:09.498Z,16.20
2023-02-21T19:35:37.916Z,26.30
2023-02-21T19:38:09.610Z,16.30
2023-02-21T19:40:37.754Z,23.60
2023-02-21T19:43:06.527Z,16.60
2023-02-21T19:45:34.713Z,16.80
2023-02-21T19:48:02.839Z,21.60
2023-02-21T19:50:30.949Z,33.40
2023-02-21T19:52:59.539Z,23.60
2023-02-21T19:55:30.468Z,15.90
2023-02-21T19:57:58.946Z,16.00
2023-02-21T20:00:27.284Z,25.20
2023-02-21T20:02:55.200Z,15.90
2023-02-21T20:05:27.345Z,18.10
2023-02-21T20:07:55.275Z,14.60
2023-02-21T20:10:26.182Z,24.50
2023-02-21T20:12:57.834Z,16.80
2023-02-21T20:15:25.729Z,17.30
2023-02-21T20:17:55.966Z,17.30
2023-02-21T20:20:25.392Z,24.70
2023-02-21T20:23:00.341Z,20.00
2023-02-21T20:25:28.239Z,15.20
2023-02-21T20:27:56.717Z,29.90
2023-02-21T20:30:25.182Z,11.10
2023-02-21T20:32:53.348Z,17.10
2023-02-21T20:35:24.823Z,12.20
2023-02-21T20:37:54.188Z,27.00
2023-02-21T20:40:22.163Z,18.60
2023-02-21T20:42:50.191Z,13.20
2023-02-21T20:45:18.684Z,22.40
2023-02-21T20:47:46.777Z,14.50
2023-02-21T20:50:20.499Z,20.00
2023-02-21T20:52:51.567Z,26.30
2023-02-21T20:55:22.132Z,14.20
2023-02-21T20:57:50.183Z,14.30
2023-02-21T21:00:23.471Z,23.80
2023-02-21T21:02:52.893Z,20.20
2023-02-21T21:05:21.066Z,13.80
2023-02-21T21:07:49.456Z,15.20
2023-02-21T21:10:18.834Z,18.50
2023-02-21T21:12:49.371Z,16.20
2023-02-21T21:15:19.867Z,12.90
2023-02-21T21:17:48.533Z,39.60
2023-02-21T21:20:21.961Z,29.80
2023-02-21T21:22:50.322Z,23.70
2023-02-21T21:25:18.325Z,18.10
2023-02-21T21:27:46.546Z,17.30
2023-02-21T21:30:22.423Z,23.00
2023-02-21T21:32:50.440Z,41.10
2023-02-21T21:35:20.248Z,28.60
2023-02-21T21:37:49.077Z,17.50
2023-02-21T21:40:17.151Z,17.70
2023-02-21T21:42:49.453Z,18.10
2023-02-21T21:45:26.268Z,18.00
2023-02-21T21:48:00.074Z,35.00
2023-02-21T21:50:28.049Z,16.20
2023-02-21T21:52:58.427Z,21.20
2023-02-21T21:55:30.101Z,16.20
2023-02-21T21:57:58.650Z,69.00
2023-02-21T22:00:30.486Z,18.30
2023-02-21T22:03:01.780Z,20.90
2023-02-21T22:05:31.812Z,12.20
2023-02-21T22:08:00.099Z,15.20
2023-02-21T22:10:29.292Z,15.30
2023-02-21T22:12:59.855Z,21.50
2023-02-21T22:15:29.673Z,10.90
2023-02-21T22:18:02.043Z,16.50
2023-02-21T22:20:31.135Z,17.60
2023-02-21T22:22:59.269Z,13.60
2023-02-21T22:25:30.373Z,21.60
2023-02-21T22:28:02.583Z,15.90
2023-02-21T22:30:34.326Z,25.20
2023-02-21T22:33:03.603Z,20.90
2023-02-21T22:35:31.743Z,27.90
2023-02-21T22:38:05.172Z,24.00
2023-02-21T22:40:37.019Z,14.10
2023-02-21T22:43:08.757Z,19.20
2023-02-21T22:45:37.730Z,20.50
2023-02-21T22:48:08.053Z,17.30
2023-02-21T22:50:39.447Z,23.10
2023-02-21T22:53:12.945Z,20.90
2023-02-21T22:55:40.858Z,16.30
2023-02-21T22:58:10.354Z,16.90
2023-02-21T23:00:38.431Z,20.10
2023-02-21T23:03:13.195Z,16.20
2023-02-21T23:05:50.743Z,24.10
2023-02-21T23:08:22.706Z,17.40
2023-02-21T23:10:51.513Z,17.90
2023-02-21T23:13:24.216Z,21.50
2023-02-21T23:15:55.928Z,14.60
2023-02-21T23:18:26.056Z,16.70
2023-02-21T23:20:57.898Z,24.60
2023-02-21T23:23:29.009Z,19.20
2023-02-21T23:25:59.409Z,23.70
2023-02-21T23:28:30.413Z,37.20
2023-02-21T23:30:58.626Z,22.30
2023-02-21T23:33:30.843Z,20.20
2023-02-21T23:35:58.846Z,15.90
2023-02-21T23:38:30.584Z,14.60
2023-02-21T23:40:59.715Z,13.80
2023-02-21T23:43:35.598Z,35.70
2023-02-21T23:46:07.586Z,18.50
2023-02-21T23:48:37.402Z,26.20
2023-02-21T23:51:07.952Z,14.40
2023-02-21T23:53:36.750Z,14.40
2023-02-21T23:56:05.851Z,27.60
2023-02-21T23:58:33.877Z,19.70
